DAUO/ELU METAR and TAF weather

Enter ICAO airport designator
Station Type Date Time Source
DAUO METAR 2018/06/25 17:00 UTC NOAA

DAUO 251700Z 21003KT CAVOK 39/12 Q1008


Station Type Date Time Source
DAUO Decoded METAR 2018/06/25 17:00 UTC NOAA

El Oued, Algeria (DAUO) 33-30N 006-07E 63M
Jun 25, 2018 - 01:00 PM EDT / 2018.06.25 1700 UTC
Wind: from the SSW (210 degrees) at 3 MPH (3 KT):0
Visibility: greater than 7 mile(s):0
Temperature: 102 F (39 C)
Heat index: 100.0 F (37.8 C):1
Dew Point: 53 F (12 C)
Relative Humidity: 20%
Pressure (altimeter): 29.77 in. Hg (1008 hPa)
ob: DAUO 251700Z 21003KT CAVOK 39/12 Q1008
cycle: 17

Station Type Date Time Source
DAUO TAF 2017/11/09 18:03 UTC NOAA

TAF DAUO 091700Z 0918/1009 28010KT 9999 SCT033 SCT100 PROB30
TEMPO 0918/0924 28015G25KT 5000 -TSRA FEW036CB


Example: see airport list